createdAt,value
2022-12-03T00:02:20.617Z,65.37
2022-12-03T00:04:47.535Z,65.22
2022-12-03T00:07:14.243Z,65.58
2022-12-03T00:09:41.055Z,65.34
2022-12-03T00:12:08.767Z,65.83
2022-12-03T00:14:38.791Z,66.01
2022-12-03T00:17:08.014Z,65.71
2022-12-03T00:19:34.948Z,65.64
2022-12-03T00:22:03.080Z,65.71
2022-12-03T00:24:29.841Z,65.15
2022-12-03T00:26:56.584Z,65.56
2022-12-03T00:29:23.253Z,65.51
2022-12-03T00:31:49.878Z,65.48
2022-12-03T00:34:16.531Z,65.08
2022-12-03T00:36:43.235Z,65.43
2022-12-03T00:39:09.979Z,65.53
2022-12-03T00:41:36.653Z,65.15
2022-12-03T00:44:03.338Z,65.08
2022-12-03T00:46:30.095Z,65.50
2022-12-03T00:48:56.882Z,65.75
2022-12-03T00:51:23.531Z,65.88
2022-12-03T00:53:50.241Z,66.07
2022-12-03T00:56:16.955Z,66.69
2022-12-03T00:58:43.618Z,66.49
2022-12-03T01:01:10.264Z,66.06
2022-12-03T01:03:37.902Z,66.29
2022-12-03T01:06:04.756Z,65.99
2022-12-03T01:08:31.492Z,67.17
2022-12-03T01:10:58.107Z,66.74
2022-12-03T01:13:24.766Z,66.64
2022-12-03T01:15:51.636Z,66.66
2022-12-03T01:18:18.427Z,66.82
2022-12-03T01:20:45.229Z,67.06
2022-12-03T01:23:13.051Z,66.24
2022-12-03T01:25:39.794Z,66.59
2022-12-03T01:28:06.436Z,66.42
2022-12-03T01:30:53.401Z,66.85
2022-12-03T01:33:20.096Z,66.88
2022-12-03T01:35:46.775Z,66.73
2022-12-03T01:38:13.373Z,66.52
2022-12-03T01:40:40.031Z,66.46
2022-12-03T01:43:06.700Z,66.34
2022-12-03T01:45:33.476Z,66.73
2022-12-03T01:48:00.666Z,66.77
2022-12-03T01:50:32.968Z,66.37
2022-12-03T01:53:02.256Z,67.39
2022-12-03T01:55:29.667Z,66.87
2022-12-03T01:58:00.307Z,67.15
2022-12-03T02:00:27.753Z,67.35
2022-12-03T02:03:00.944Z,67.14
2022-12-03T02:05:30.777Z,68.12
2022-12-03T02:07:58.266Z,67.90
2022-12-03T02:10:36.128Z,67.78
2022-12-03T02:13:10.659Z,67.70
2022-12-03T02:15:39.728Z,68.44
2022-12-03T02:18:08.677Z,67.90
2022-12-03T02:20:45.456Z,68.21
2022-12-03T02:23:25.364Z,67.52
2022-12-03T02:25:52.087Z,67.55
2022-12-03T02:28:18.803Z,67.66
2022-12-03T02:30:45.473Z,67.75
2022-12-03T02:33:12.145Z,67.57
2022-12-03T02:35:39.797Z,68.08
2022-12-03T02:38:14.169Z,68.08
2022-12-03T02:40:41.986Z,67.62
2022-12-03T02:43:09.681Z,67.83
2022-12-03T02:45:41.451Z,67.61
2022-12-03T02:48:11.874Z,66.90
2022-12-03T02:50:44.300Z,66.63
2022-12-03T02:53:31.166Z,66.61
2022-12-03T02:56:00.519Z,66.87
2022-12-03T02:58:31.227Z,66.68
2022-12-03T03:00:59.594Z,66.51
2022-12-03T03:03:29.110Z,66.37
2022-12-03T03:05:56.770Z,65.90
2022-12-03T03:08:25.050Z,66.12
2022-12-03T03:10:52.180Z,66.00
2022-12-03T03:13:20.138Z,65.87
2022-12-03T03:15:47.592Z,65.69
2022-12-03T03:18:15.708Z,65.71
2022-12-03T03:20:42.621Z,65.89
2022-12-03T03:23:12.104Z,66.37
2022-12-03T03:25:41.016Z,66.34
2022-12-03T03:28:07.882Z,66.22
2022-12-03T03:30:35.897Z,66.69
2022-12-03T03:33:02.730Z,66.73
2022-12-03T03:35:29.532Z,66.88
2022-12-03T03:37:58.565Z,66.79
2022-12-03T03:40:26.243Z,67.11
2022-12-03T03:42:55.462Z,66.75
2022-12-03T03:45:28.567Z,67.12
2022-12-03T03:47:57.931Z,67.44
2022-12-03T03:50:25.612Z,67.35
2022-12-03T03:52:52.904Z,68.02
2022-12-03T03:55:20.399Z,67.47
2022-12-03T03:57:48.200Z,68.00
2022-12-03T04:00:16.791Z,67.83
2022-12-03T04:02:43.734Z,67.91
2022-12-03T04:05:16.929Z,68.10
2022-12-03T04:07:43.674Z,68.29
2022-12-03T04:10:30.233Z,69.03
2022-12-03T04:12:57.078Z,68.78
2022-12-03T04:15:24.824Z,68.69
2022-12-03T04:18:10.699Z,68.90
2022-12-03T04:20:38.074Z,68.99
2022-12-03T04:23:05.534Z,68.83
2022-12-03T04:25:51.361Z,68.73
2022-12-03T04:28:36.651Z,68.78
2022-12-03T04:31:23.650Z,69.32
2022-12-03T04:34:09.087Z,69.28
2022-12-03T04:36:35.799Z,69.01
2022-12-03T04:39:02.627Z,68.99
2022-12-03T04:41:29.247Z,68.68
2022-12-03T04:44:14.651Z,68.89
2022-12-03T04:46:41.297Z,69.27
2022-12-03T04:49:07.878Z,69.06
2022-12-03T04:51:34.580Z,68.98
2022-12-03T04:54:02.037Z,68.91
2022-12-03T04:56:28.728Z,69.28
2022-12-03T04:58:55.458Z,69.04
2022-12-03T05:01:22.333Z,68.88
2022-12-03T05:03:49.052Z,68.92
2022-12-03T05:06:15.764Z,68.52
2022-12-03T05:08:42.456Z,69.69
2022-12-03T05:11:09.261Z,69.84
2022-12-03T05:13:36.263Z,70.27
2022-12-03T05:16:02.929Z,70.15
2022-12-03T05:18:29.737Z,69.84
2022-12-03T05:20:56.491Z,69.83
2022-12-03T05:23:23.452Z,70.30
2022-12-03T05:25:50.297Z,69.92
2022-12-03T05:28:17.312Z,70.53
2022-12-03T05:30:44.271Z,70.40
2022-12-03T05:33:11.125Z,70.37
2022-12-03T05:35:37.719Z,70.00
2022-12-03T05:38:04.453Z,69.98
2022-12-03T05:40:31.147Z,70.07
2022-12-03T05:42:57.897Z,70.05
2022-12-03T05:45:31.162Z,70.10
2022-12-03T05:47:59.270Z,70.23
2022-12-03T05:50:28.455Z,70.10
2022-12-03T05:52:55.391Z,70.90
2022-12-03T05:55:22.806Z,70.38
2022-12-03T05:57:49.527Z,70.41
2022-12-03T06:00:19.067Z,70.37
2022-12-03T06:02:45.911Z,70.14
2022-12-03T06:05:13.848Z,70.42
2022-12-03T06:07:41.384Z,70.12
2022-12-03T06:10:10.795Z,69.83
2022-12-03T06:12:37.433Z,69.72
2022-12-03T06:15:04.754Z,69.83
2022-12-03T06:17:31.651Z,69.17
2022-12-03T06:19:58.435Z,69.36
2022-12-03T06:22:25.106Z,69.28
2022-12-03T06:24:52.098Z,68.90
2022-12-03T06:27:19.213Z,68.94
2022-12-03T06:29:45.898Z,69.60
2022-12-03T06:32:12.552Z,69.20
2022-12-03T06:34:39.358Z,69.74
2022-12-03T06:37:06.199Z,69.92
2022-12-03T06:39:33.207Z,69.10
2022-12-03T06:42:01.930Z,69.43
2022-12-03T06:44:28.674Z,69.67
2022-12-03T06:46:55.400Z,69.16
2022-12-03T06:49:22.232Z,69.01
2022-12-03T06:51:48.900Z,68.69
2022-12-03T06:54:15.564Z,68.75
2022-12-03T06:56:45.449Z,67.97
2022-12-03T06:59:12.670Z,68.24
2022-12-03T07:01:39.707Z,68.41
2022-12-03T07:04:06.363Z,68.45
2022-12-03T07:06:32.992Z,68.40
2022-12-03T07:08:59.644Z,68.16
2022-12-03T07:11:40.191Z,68.35
2022-12-03T07:14:08.606Z,68.57
2022-12-03T07:16:36.373Z,68.92
2022-12-03T07:19:04.762Z,68.89
2022-12-03T07:21:31.604Z,68.59
2022-12-03T07:23:58.316Z,68.98
2022-12-03T07:26:25.094Z,68.80
2022-12-03T07:28:51.845Z,68.72
2022-12-03T07:31:18.679Z,68.47
2022-12-03T07:33:45.529Z,68.56
2022-12-03T07:36:12.172Z,69.00
2022-12-03T07:38:38.827Z,68.96
2022-12-03T07:41:05.808Z,69.10
2022-12-03T07:43:32.806Z,69.25
2022-12-03T07:45:59.455Z,69.72
2022-12-03T07:48:27.818Z,69.79
2022-12-03T07:50:54.675Z,69.50
2022-12-03T07:53:21.649Z,69.63
2022-12-03T07:55:48.453Z,69.53
2022-12-03T07:58:15.191Z,70.05
2022-12-03T08:00:41.969Z,69.64
2022-12-03T08:03:08.685Z,69.42
2022-12-03T08:05:35.362Z,69.02
2022-12-03T08:08:02.186Z,68.72
2022-12-03T08:10:31.943Z,69.05
2022-12-03T08:12:59.530Z,68.91
2022-12-03T08:15:33.860Z,68.83
2022-12-03T08:18:12.780Z,68.51
2022-12-03T08:20:44.600Z,68.81
2022-12-03T08:23:17.550Z,68.66
2022-12-03T08:25:45.316Z,68.49
2022-12-03T08:28:19.007Z,68.02
2022-12-03T08:31:02.966Z,68.32
2022-12-03T08:33:35.428Z,67.95
2022-12-03T08:36:13.097Z,67.98
2022-12-03T08:38:40.997Z,67.97
2022-12-03T08:41:14.372Z,68.36
2022-12-03T08:43:44.888Z,68.67
2022-12-03T08:46:17.198Z,67.82
2022-12-03T08:48:48.705Z,68.25
2022-12-03T08:51:25.413Z,68.31
2022-12-03T08:54:01.503Z,68.01
2022-12-03T08:56:30.580Z,67.69
2022-12-03T08:59:24.406Z,67.21
2022-12-03T09:01:53.296Z,67.09
2022-12-03T09:04:27.426Z,66.90
2022-12-03T09:06:55.102Z,66.68
2022-12-03T09:09:22.976Z,66.64
2022-12-03T09:11:50.354Z,67.18
2022-12-03T09:14:22.390Z,67.10
2022-12-03T09:16:55.588Z,66.98
2022-12-03T09:19:24.392Z,66.64
2022-12-03T09:21:51.558Z,66.68
2022-12-03T09:24:18.379Z,67.07
2022-12-03T09:26:45.047Z,67.40
2022-12-03T09:29:12.802Z,66.99
2022-12-03T09:31:40.663Z,67.23
2022-12-03T09:34:07.865Z,66.94
2022-12-03T09:36:34.657Z,67.58
2022-12-03T09:39:01.714Z,67.74
2022-12-03T09:41:28.783Z,68.14
2022-12-03T09:44:05.344Z,67.37
2022-12-03T09:46:35.315Z,67.07
2022-12-03T09:49:04.383Z,67.80
2022-12-03T09:51:35.352Z,67.73
2022-12-03T09:54:04.977Z,67.20
2022-12-03T09:56:32.304Z,66.81
2022-12-03T09:58:59.381Z,66.35
2022-12-03T10:01:30.123Z,66.24
2022-12-03T10:03:58.538Z,66.41
2022-12-03T10:06:25.370Z,66.96
2022-12-03T10:08:54.834Z,66.43
2022-12-03T10:11:24.612Z,66.05
2022-12-03T10:13:54.753Z,66.04
2022-12-03T10:16:21.783Z,66.48
2022-12-03T10:18:56.975Z,66.58
2022-12-03T10:21:36.431Z,65.63
2022-12-03T10:24:26.757Z,66.25
2022-12-03T10:26:55.572Z,66.32
2022-12-03T10:29:34.258Z,66.37
2022-12-03T10:32:10.218Z,66.69
2022-12-03T10:34:42.037Z,66.33
2022-12-03T10:37:22.638Z,65.81
2022-12-03T10:39:55.745Z,65.36
2022-12-03T10:42:25.496Z,65.58
2022-12-03T10:45:07.102Z,65.30
2022-12-03T10:47:33.883Z,65.75
2022-12-03T10:50:06.936Z,65.35
2022-12-03T10:52:33.713Z,64.93
2022-12-03T10:55:00.554Z,64.52
2022-12-03T10:57:27.305Z,64.69
2022-12-03T10:59:54.131Z,64.61
2022-12-03T11:02:24.244Z,64.30
2022-12-03T11:04:52.152Z,64.37
2022-12-03T11:07:21.649Z,64.83
2022-12-03T11:09:51.155Z,64.14
2022-12-03T11:12:23.924Z,64.05
2022-12-03T11:14:51.156Z,63.43
2022-12-03T11:17:43.545Z,63.93
2022-12-03T11:20:25.484Z,63.76
2022-12-03T11:22:53.041Z,63.52
2022-12-03T11:25:26.090Z,63.43
2022-12-03T11:28:11.609Z,63.87
2022-12-03T11:31:01.689Z,64.29
2022-12-03T11:33:33.824Z,64.24
2022-12-03T11:36:03.636Z,64.14
2022-12-03T11:38:40.987Z,63.80
2022-12-03T11:41:21.242Z,63.15
2022-12-03T11:43:57.063Z,63.69
2022-12-03T11:46:31.042Z,63.34
2022-12-03T11:48:59.900Z,63.25
2022-12-03T11:51:29.236Z,63.13
2022-12-03T11:53:58.513Z,62.92
2022-12-03T11:56:29.583Z,62.77
2022-12-03T11:59:02.760Z,62.73
2022-12-03T12:01:39.172Z,62.16
2022-12-03T12:04:08.413Z,62.44
2022-12-03T12:06:43.335Z,61.94
2022-12-03T12:09:10.605Z,62.75
2022-12-03T12:11:41.280Z,62.32
2022-12-03T12:14:10.695Z,62.07
2022-12-03T12:16:50.853Z,62.80
2022-12-03T12:19:40.580Z,62.31
2022-12-03T12:22:19.725Z,62.21
2022-12-03T12:24:51.565Z,61.81
2022-12-03T12:27:47.108Z,61.21
2022-12-03T12:30:15.446Z,61.92
2022-12-03T12:32:52.336Z,61.33
2022-12-03T12:35:27.787Z,62.26
2022-12-03T12:38:00.072Z,61.40
2022-12-03T12:40:29.921Z,62.38
2022-12-03T12:42:59.262Z,61.94
2022-12-03T12:45:33.760Z,62.33
2022-12-03T12:48:23.750Z,62.25
2022-12-03T12:51:15.210Z,62.97
2022-12-03T12:53:42.871Z,62.82
2022-12-03T12:56:30.945Z,62.80
2022-12-03T12:59:12.651Z,62.87
2022-12-03T13:01:40.892Z,62.63
2022-12-03T13:04:19.975Z,62.56
2022-12-03T13:06:48.948Z,62.84
2022-12-03T13:09:21.611Z,62.32
2022-12-03T13:12:00.600Z,62.23
2022-12-03T13:14:34.437Z,62.24
2022-12-03T13:17:10.067Z,62.25
2022-12-03T13:19:48.357Z,62.37
2022-12-03T13:22:19.246Z,62.30
2022-12-03T13:24:48.255Z,62.88
2022-12-03T13:27:18.122Z,63.27
2022-12-03T13:29:47.397Z,63.54
2022-12-03T13:32:21.014Z,63.59
2022-12-03T13:34:47.832Z,63.15
2022-12-03T13:37:19.683Z,63.31
2022-12-03T13:39:54.958Z,62.95
2022-12-03T13:42:46.386Z,63.30
2022-12-03T13:45:16.079Z,62.53
2022-12-03T13:47:46.206Z,62.76
2022-12-03T13:50:34.324Z,63.20
2022-12-03T13:53:03.438Z,62.78
2022-12-03T13:55:31.222Z,63.01
2022-12-03T13:57:58.670Z,62.97
2022-12-03T14:00:25.426Z,63.04
2022-12-03T14:02:52.387Z,62.96
2022-12-03T14:05:21.171Z,63.30
2022-12-03T14:07:47.911Z,63.13
2022-12-03T14:10:14.810Z,63.50
2022-12-03T14:12:41.644Z,63.33
2022-12-03T15:19:10.762Z,63.76
2022-12-03T15:21:37.723Z,63.58
2022-12-03T15:25:55.292Z,62.88
2022-12-03T15:28:23.051Z,62.89
2022-12-03T15:30:50.359Z,62.92
2022-12-03T15:33:17.527Z,63.09
2022-12-03T15:35:44.246Z,63.17
2022-12-03T15:38:11.836Z,63.23
2022-12-03T15:40:39.077Z,64.34
2022-12-03T15:43:09.070Z,64.99
2022-12-03T15:45:36.004Z,64.54
2022-12-03T15:48:02.852Z,64.79
2022-12-03T15:50:29.629Z,64.14
2022-12-03T15:52:56.281Z,63.85
2022-12-03T15:55:23.066Z,63.55
2022-12-03T15:57:49.917Z,63.87
2022-12-03T16:00:17.558Z,63.54
2022-12-03T16:02:50.745Z,63.58
2022-12-03T16:05:17.926Z,63.38
2022-12-03T16:07:44.588Z,63.42
2022-12-03T16:10:11.985Z,63.86
2022-12-03T16:12:38.774Z,63.44
2022-12-03T16:15:06.032Z,63.63
2022-12-03T16:17:32.755Z,63.90
2022-12-03T16:19:59.491Z,63.89
2022-12-03T16:22:26.234Z,63.70
2022-12-03T16:24:52.966Z,63.87
2022-12-03T16:27:24.053Z,63.83
2022-12-03T16:29:52.717Z,63.55
2022-12-03T16:32:19.768Z,64.48
2022-12-03T16:34:46.456Z,64.85
2022-12-03T16:37:13.404Z,64.43
2022-12-03T16:39:47.449Z,65.01
2022-12-03T16:42:17.558Z,64.64
2022-12-03T16:45:03.202Z,64.78
2022-12-03T16:47:33.897Z,64.88
2022-12-03T16:50:02.338Z,64.49
2022-12-03T16:52:29.414Z,64.81
2022-12-03T16:54:56.298Z,64.66
2022-12-03T16:57:23.147Z,64.64
2022-12-03T16:59:49.952Z,65.35
2022-12-03T17:02:16.811Z,65.20
2022-12-03T17:04:43.760Z,65.43
2022-12-03T17:07:10.630Z,65.68
2022-12-03T17:09:38.329Z,65.57
2022-12-03T17:12:05.983Z,65.63
2022-12-03T17:14:33.551Z,65.90
2022-12-03T17:17:00.401Z,66.77
2022-12-03T17:19:27.546Z,66.90
2022-12-03T17:21:54.317Z,66.46
2022-12-03T17:24:21.613Z,67.07
2022-12-03T17:26:48.476Z,66.91
2022-12-03T17:29:15.207Z,67.14
2022-12-03T17:31:42.755Z,66.56
2022-12-03T17:34:10.418Z,66.51
2022-12-03T17:36:37.069Z,66.01
2022-12-03T17:39:03.781Z,66.60
2022-12-03T17:41:30.440Z,66.55
2022-12-03T17:43:57.102Z,67.06
2022-12-03T17:46:23.843Z,66.47
2022-12-03T17:48:50.641Z,66.58
2022-12-03T17:51:19.182Z,67.62
2022-12-03T17:53:45.843Z,67.69
2022-12-03T17:56:12.478Z,67.71
2022-12-03T17:58:39.455Z,67.88
2022-12-03T18:01:08.496Z,67.31
2022-12-03T18:03:35.202Z,66.85
2022-12-03T18:06:03.563Z,66.45
2022-12-03T18:08:30.249Z,67.02
2022-12-03T18:10:56.937Z,67.56
2022-12-03T18:13:23.765Z,67.38
2022-12-03T18:15:50.544Z,66.87
2022-12-03T18:18:17.278Z,66.38
2022-12-03T18:20:44.672Z,66.49
2022-12-03T18:23:12.206Z,66.58
2022-12-03T18:25:39.320Z,66.61
2022-12-03T18:28:06.100Z,66.23
2022-12-03T18:30:32.873Z,66.09
2022-12-03T18:32:59.633Z,65.78
2022-12-03T18:35:26.448Z,66.03
2022-12-03T18:37:53.269Z,66.06
2022-12-03T18:40:23.692Z,67.11
2022-12-03T18:42:50.767Z,66.46
2022-12-03T18:45:17.667Z,66.45
2022-12-03T18:47:44.971Z,66.32
2022-12-03T18:50:12.900Z,66.28
2022-12-03T18:52:40.320Z,65.56
2022-12-03T18:55:07.813Z,65.94
2022-12-03T18:57:34.563Z,65.96
2022-12-03T19:00:02.513Z,65.89
2022-12-03T19:03:01.036Z,66.03
2022-12-03T19:05:16.206Z,65.60
2022-12-03T19:07:43.333Z,65.63
2022-12-03T19:10:11.260Z,65.83
2022-12-03T19:12:38.581Z,65.74
2022-12-03T19:15:06.394Z,65.97
2022-12-03T19:17:33.177Z,66.37
2022-12-03T19:19:59.944Z,66.90
2022-12-03T19:22:27.261Z,66.14
2022-12-03T19:24:54.079Z,66.10
2022-12-03T19:27:20.838Z,65.82
2022-12-03T19:29:48.770Z,65.99
2022-12-03T19:32:15.682Z,66.20
2022-12-03T19:34:42.428Z,66.22
2022-12-03T19:37:09.243Z,66.43
2022-12-03T19:39:36.023Z,66.56
2022-12-03T19:42:02.843Z,66.09
2022-12-03T19:44:30.394Z,67.25
2022-12-03T19:46:57.383Z,66.40
2022-12-03T19:49:24.551Z,66.38
2022-12-03T19:51:51.313Z,66.12
2022-12-03T19:54:19.846Z,65.96
2022-12-03T19:56:46.593Z,66.24
2022-12-03T19:59:14.030Z,66.05
2022-12-03T20:01:42.964Z,65.68
2022-12-03T20:04:11.366Z,65.32
2022-12-03T20:06:39.102Z,65.46
2022-12-03T20:09:11.382Z,64.97
2022-12-03T20:11:39.831Z,65.71
2022-12-03T20:14:13.125Z,65.88
2022-12-03T20:16:40.244Z,65.58
2022-12-03T20:19:09.985Z,65.91
2022-12-03T20:21:38.368Z,65.82
2022-12-03T20:24:06.839Z,66.67
2022-12-03T20:26:33.850Z,67.42
2022-12-03T20:29:00.828Z,67.00
2022-12-03T20:31:30.556Z,67.34
2022-12-03T20:34:00.610Z,67.87
2022-12-03T20:36:30.424Z,67.51
2022-12-03T20:39:02.162Z,68.01
2022-12-03T20:41:29.514Z,67.93
2022-12-03T20:43:56.742Z,68.67
2022-12-03T20:46:29.293Z,67.78
2022-12-03T20:48:56.980Z,67.84
2022-12-03T20:51:27.465Z,67.34
2022-12-03T20:53:54.334Z,67.83
2022-12-03T20:56:27.044Z,67.80
2022-12-03T20:58:53.838Z,67.99
2022-12-03T21:01:23.602Z,67.84
2022-12-03T21:03:51.796Z,67.61
2022-12-03T21:06:19.258Z,67.59
2022-12-03T21:08:46.569Z,67.01
2022-12-03T21:11:16.980Z,67.12
2022-12-03T21:13:44.452Z,67.05
2022-12-03T21:16:13.895Z,67.56
2022-12-03T21:18:41.168Z,67.28
2022-12-03T21:21:10.344Z,67.56
2022-12-03T21:23:39.833Z,67.16
2022-12-03T21:26:14.959Z,67.88
2022-12-03T21:28:43.542Z,67.78
2022-12-03T21:31:13.680Z,68.09
2022-12-03T21:33:41.141Z,68.54
2022-12-03T21:36:08.731Z,68.37
2022-12-03T21:38:37.079Z,68.55
2022-12-03T21:41:04.373Z,67.84
2022-12-03T21:43:32.502Z,67.63
2022-12-03T21:46:00.060Z,67.87
2022-12-03T21:48:27.630Z,67.72
2022-12-03T21:51:03.676Z,67.41
2022-12-03T21:53:32.101Z,67.42
2022-12-03T21:56:13.013Z,67.86
2022-12-03T21:58:40.073Z,67.54
2022-12-03T22:01:12.207Z,67.86
2022-12-03T22:03:38.955Z,67.76
2022-12-03T22:06:05.885Z,67.69
2022-12-03T22:08:32.600Z,67.61
2022-12-03T22:11:04.293Z,67.53
2022-12-03T22:13:31.540Z,67.50
2022-12-03T22:15:58.257Z,68.08
2022-12-03T22:18:24.963Z,67.90
2022-12-03T22:20:51.690Z,68.75
2022-12-03T22:23:18.349Z,68.13
2022-12-03T22:25:45.031Z,68.90
2022-12-03T22:28:11.653Z,68.25
2022-12-03T22:30:41.635Z,68.28
2022-12-03T22:33:08.431Z,68.10
2022-12-03T22:35:35.139Z,67.86
2022-12-03T22:38:02.297Z,68.50
2022-12-03T22:40:28.958Z,68.24
2022-12-03T22:42:55.830Z,68.90
2022-12-03T22:45:22.557Z,68.19
2022-12-03T22:47:49.259Z,68.30
2022-12-03T22:50:15.962Z,68.48
2022-12-03T22:52:45.292Z,68.57
2022-12-03T22:55:12.069Z,68.96
2022-12-03T22:57:38.796Z,68.14
2022-12-03T23:00:09.913Z,67.54
2022-12-03T23:02:36.766Z,67.50
2022-12-03T23:05:03.818Z,68.17
2022-12-03T23:07:30.580Z,68.36
2022-12-03T23:09:57.639Z,68.54
2022-12-03T23:12:24.582Z,68.13
2022-12-03T23:14:55.184Z,68.35
2022-12-03T23:17:21.872Z,68.56
2022-12-03T23:19:48.701Z,67.81
2022-12-03T23:22:17.936Z,67.87
2022-12-03T23:24:44.681Z,68.25
2022-12-03T23:27:11.409Z,67.78
2022-12-03T23:29:38.124Z,68.90
2022-12-03T23:32:04.874Z,68.86
2022-12-03T23:34:31.624Z,68.86
2022-12-03T23:36:58.392Z,68.47
2022-12-03T23:39:25.104Z,68.34
2022-12-03T23:41:52.344Z,68.10
2022-12-03T23:44:19.055Z,68.56
2022-12-03T23:46:45.816Z,68.42
2022-12-03T23:49:12.602Z,68.14
2022-12-03T23:51:39.280Z,69.13
2022-12-03T23:54:06.284Z,68.22
2022-12-03T23:56:33.035Z,68.38
2022-12-03T23:58:59.684Z,68.51
